Time;durP1;ratioP1;P1;durP2;ratioP2;P2;SDS_P1;SDS_P2;PMS_P1;PMS_P2;Temp;Humidity;BMP_temperature;BMP_pressure;BME280_temperature;BME280_humidity;BME280_pressure;Samples;Min_cycle;Max_cycle;Signal;HPM_P1;HPM_P2
2020/12/16 00:02:23;;;;;;;63.38;26.25;;;;;;;3.74;100.00;95867.38;5107653;28;20039;-75
2020/12/16 00:04:50;;;;;;;68.82;29.38;;;;;;;3.58;100.00;95863.03;5106856;28;20493;-74
2020/12/16 00:07:17;;;;;;;65.38;30.13;;;;;;;3.56;100.00;95859.81;5107340;27;20484;-75
2020/12/16 00:09:44;;;;;;;66.85;30.02;;;;;;;3.59;100.00;95870.59;5104967;28;20051;-75
2020/12/16 00:12:10;;;;;;;76.05;29.60;;;;;;;3.56;100.00;95864.97;5107691;28;20450;-75
2020/12/16 00:14:36;;;;;;;77.28;31.33;;;;;;;3.37;100.00;95868.69;5105100;28;22288;-75
2020/12/16 00:17:04;;;;;;;74.95;31.02;;;;;;;3.42;100.00;95868.97;5106444;28;20040;-75
2020/12/16 00:19:30;;;;;;;75.30;31.05;;;;;;;3.37;100.00;95866.09;5106487;28;20039;-75
2020/12/16 00:22:00;;;;;;;82.68;34.05;;;;;;;3.41;100.00;95873.34;5107317;28;20075;-75
2020/12/16 00:24:27;;;;;;;82.32;37.17;;;;;;;3.47;100.00;95871.09;5105548;28;20043;-67
2020/12/16 00:26:53;;;;;;;80.68;35.10;;;;;;;3.50;100.00;95876.72;5105787;28;20035;-67
2020/12/16 00:29:19;;;;;;;79.75;28.70;;;;;;;3.34;100.00;95872.38;5104805;28;20127;-68
2020/12/16 00:31:46;;;;;;;93.13;29.17;;;;;;;3.27;100.00;95871.41;5087752;28;20497;-67
2020/12/16 00:34:12;;;;;;;95.03;28.63;;;;;;;3.05;100.00;95852.22;5104983;28;20044;-67
2020/12/16 00:36:40;;;;;;;96.18;28.73;;;;;;;3.11;100.00;95859.31;5105551;28;20027;-67
2020/12/16 00:39:08;;;;;;;107.13;28.77;;;;;;;3.08;100.00;95867.38;5104908;28;20054;-67
2020/12/16 00:41:35;;;;;;;100.32;28.63;;;;;;;2.98;100.00;95857.19;5089395;28;20046;-66
2020/12/16 00:44:03;;;;;;;100.85;26.52;;;;;;;3.08;100.00;95862.22;5106383;28;20036;-67
2020/12/16 00:46:30;;;;;;;88.65;27.40;;;;;;;2.87;100.00;95844.63;5106508;28;20062;-67
2020/12/16 00:48:57;;;;;;;106.93;28.30;;;;;;;2.84;100.00;95853.47;5105289;28;20031;-67
2020/12/16 00:51:23;;;;;;;94.32;25.77;;;;;;;2.83;100.00;95864.72;5105055;28;20526;-67
2020/12/16 00:53:51;;;;;;;107.60;27.00;;;;;;;2.83;100.00;95862.16;5088594;28;20066;-65
2020/12/16 00:56:18;;;;;;;109.40;27.77;;;;;;;2.86;100.00;95869.56;5104948;28;20101;-65
2020/12/16 00:58:44;;;;;;;123.45;27.52;;;;;;;2.74;100.00;95855.38;5104821;28;20035;-65
2020/12/16 01:01:11;;;;;;;131.23;27.30;;;;;;;2.74;100.00;95860.53;5104841;28;20523;-66
2020/12/16 01:03:37;;;;;;;103.55;26.58;;;;;;;2.76;100.00;95858.59;5105848;28;21737;-67
2020/12/16 01:06:04;;;;;;;121.45;28.67;;;;;;;2.79;100.00;95857.47;5088657;28;20040;-67
2020/12/16 01:08:32;;;;;;;126.38;29.65;;;;;;;2.83;100.00;95862.16;5088121;28;20043;-65
2020/12/16 01:10:59;;;;;;;125.35;28.25;;;;;;;2.79;100.00;95858.28;5106233;28;20062;-67
2020/12/16 01:13:29;;;;;;;122.63;27.85;;;;;;;2.75;100.00;95851.03;5104843;28;20492;-66
2020/12/16 01:15:56;;;;;;;114.00;28.65;;;;;;;2.74;100.00;95832.22;5103889;28;20043;-67
2020/12/16 01:18:23;;;;;;;104.68;26.95;;;;;;;2.77;100.00;95831.91;5086161;28;20122;-66
2020/12/16 01:20:53;;;;;;;120.53;29.17;;;;;;;2.80;100.00;95844.44;5107438;28;20036;-66
2020/12/16 01:23:29;;;;;;;120.85;28.65;;;;;;;2.72;100.00;95841.06;5108511;28;20101;-66
2020/12/16 01:25:55;;;;;;;111.47;28.50;;;;;;;2.80;100.00;95853.94;5110131;28;20040;-66
2020/12/16 01:28:22;;;;;;;104.95;27.67;;;;;;;2.89;100.00;95844.47;5108642;28;20577;-67
2020/12/16 01:30:54;;;;;;;105.82;25.30;;;;;;;2.79;100.00;95842.84;5108839;28;21984;-66
2020/12/16 01:33:20;;;;;;;117.55;27.35;;;;;;;2.79;100.00;95830.00;5108761;28;20035;-66
2020/12/16 01:35:57;;;;;;;108.00;25.58;;;;;;;2.71;100.00;95826.59;5106677;28;20473;-66
2020/12/16 01:38:25;;;;;;;97.28;24.10;;;;;;;2.76;100.00;95840.59;5090659;28;20032;-67
2020/12/16 01:41:03;;;;;;;148.00;24.00;;;;;;;2.84;100.00;95835.44;5108537;28;20039;-65
2020/12/16 01:43:36;;;;;;;104.97;25.58;;;;;;;2.78;100.00;95833.53;5108359;28;20039;-66
2020/12/16 01:46:03;;;;;;;107.32;24.15;;;;;;;2.45;100.00;95800.00;5107127;28;20059;-65
2020/12/16 01:48:30;;;;;;;114.15;26.27;;;;;;;2.72;100.00;95818.72;5108437;28;20043;-66
2020/12/16 01:50:57;;;;;;;115.07;24.90;;;;;;;2.79;100.00;95830.00;5109176;28;20494;-65
2020/12/16 01:53:29;;;;;;;101.07;23.30;;;;;;;2.74;100.00;95829.66;5108764;28;20046;-65
2020/12/16 01:55:58;;;;;;;90.47;21.42;;;;;;;2.78;100.00;95830.94;5091748;28;20424;-66
2020/12/16 01:58:48;;;;;;;94.13;23.08;;;;;;;2.89;100.00;95836.75;5108379;28;20123;-67
2020/12/16 02:01:21;;;;;;;74.35;22.65;;;;;;;2.92;100.00;95831.28;5107907;28;20578;-64
2020/12/16 02:03:53;;;;;;;85.53;23.55;;;;;;;2.94;100.00;95832.75;5107931;28;20152;-66
2020/12/16 02:06:31;;;;;;;91.35;23.20;;;;;;;2.91;100.00;95835.63;5092881;28;20043;-67
2020/12/16 02:09:05;;;;;;;80.88;21.80;;;;;;;2.66;100.00;95824.47;5107272;28;20058;-67
2020/12/16 02:11:38;;;;;;;71.45;21.33;;;;;;;2.72;100.00;95831.59;5107837;28;20148;-66
2020/12/16 02:14:13;;;;;;;67.32;21.25;;;;;;;2.77;100.00;95836.25;5108247;28;20096;-68
2020/12/16 02:16:43;;;;;;;71.53;19.10;;;;;;;2.81;100.00;95846.06;5107095;28;20424;-66
2020/12/16 02:19:11;;;;;;;69.18;18.73;;;;;;;2.70;100.00;95838.63;5108176;28;20509;-67
2020/12/16 02:21:49;;;;;;;63.40;17.95;;;;;;;2.62;100.00;95836.06;5108106;28;20063;-66
2020/12/16 02:24:17;;;;;;;69.93;18.75;;;;;;;2.68;100.00;95848.28;5090359;28;20046;-66
2020/12/16 02:26:45;;;;;;;66.13;17.85;;;;;;;2.46;100.00;95835.03;5108105;28;20043;-67
2020/12/16 02:29:12;;;;;;;67.50;16.80;;;;;;;2.56;100.00;95844.41;5108025;28;20073;-66
2020/12/16 02:31:45;;;;;;;59.47;18.88;;;;;;;2.45;100.00;95833.44;5106097;28;21865;-66
2020/12/16 02:34:13;;;;;;;59.42;18.67;;;;;;;2.52;100.00;95851.63;5106851;28;20043;-66
2020/12/16 02:36:43;;;;;;;70.28;18.48;;;;;;;2.47;100.00;95834.06;5107660;28;20043;-66
2020/12/16 02:39:17;;;;;;;64.32;18.88;;;;;;;2.48;100.00;95856.28;5108068;28;20075;-66
2020/12/16 02:42:08;;;;;;;59.47;15.60;;;;;;;2.24;100.00;95858.72;5107487;28;20113;-66
2020/12/16 02:44:36;;;;;;;55.88;16.95;;;;;;;2.28;100.00;95847.16;5106667;28;20055;-66
2020/12/16 02:47:37;;;;;;;84.95;17.85;;;;;;;2.28;100.00;95842.03;5099750;28;20051;-66
2020/12/16 02:50:07;;;;;;;59.30;15.57;;;;;;;2.42;100.00;95846.59;5107974;28;20414;-67
2020/12/16 02:52:42;;;;;;;60.83;15.38;;;;;;;2.25;100.00;95839.75;5107160;28;20043;-67
2020/12/16 02:55:13;;;;;;;65.90;17.27;;;;;;;2.36;100.00;95852.38;5107206;28;20508;-68
2020/12/16 02:57:53;;;;;;;64.53;18.33;;;;;;;2.23;100.00;95857.09;5107484;28;20047;-68
2020/12/16 03:00:19;;;;;;;66.18;18.73;;;;;;;2.03;100.00;95849.63;5107752;28;20040;-67
2020/12/16 03:03:04;;;;;;;84.28;20.80;;;;;;;2.05;100.00;95845.16;5108706;28;20077;-68
2020/12/16 03:05:36;;;;;;;67.22;19.80;;;;;;;2.04;100.00;95848.66;5107216;28;20454;-67
2020/12/16 03:08:07;;;;;;;70.30;18.65;;;;;;;1.93;100.00;95843.78;5107558;28;20046;-67
2020/12/16 03:10:39;;;;;;;78.22;23.67;;;;;;;1.92;100.00;95847.31;5090515;28;20067;-67
2020/12/16 03:13:06;;;;;;;76.15;20.73;;;;;;;1.84;100.00;95842.13;5108313;28;20115;-67
2020/12/16 03:15:33;;;;;;;55.38;18.52;;;;;;;1.93;100.00;95859.22;5072336;28;20236;-67
2020/12/16 03:18:00;;;;;;;73.95;19.17;;;;;;;1.94;100.00;95853.09;5106765;28;20524;-66
2020/12/16 03:20:27;;;;;;;73.80;20.88;;;;;;;1.70;100.00;95844.28;5107077;28;20416;-66
2020/12/16 03:22:54;;;;;;;77.80;22.05;;;;;;;1.27;100.00;95788.63;5106867;28;20067;-67
2020/12/16 03:25:41;;;;;;;68.70;18.35;;;;;;;1.59;100.00;95849.66;5108181;28;20401;-67
2020/12/16 03:28:25;;;;;;;59.28;17.60;;;;;;;1.65;100.00;95853.41;5108905;28;20104;-66
2020/12/16 03:31:16;;;;;;;67.70;18.60;;;;;;;1.71;100.00;95869.03;5092679;28;20754;-66
2020/12/16 03:34:03;;;;;;;60.75;17.13;;;;;;;1.88;100.00;95864.78;5086788;28;20063;-67
2020/12/16 03:36:46;;;;;;;73.07;17.35;;;;;;;1.93;100.00;95866.91;5092498;28;20397;-67
2020/12/16 03:39:13;;;;;;;74.35;18.85;;;;;;;1.71;100.00;95843.34;5106745;28;20067;-66
2020/12/16 03:41:40;;;;;;;72.50;19.58;;;;;;;1.87;100.00;95862.38;5106751;28;20532;-67
2020/12/16 03:44:08;;;;;;;70.53;19.42;;;;;;;2.02;100.00;95866.00;5089556;28;20054;-67
2020/12/16 03:46:40;;;;;;;59.42;18.13;;;;;;;1.93;100.00;95866.91;5106497;28;20041;-67
2020/12/16 03:49:07;;;;;;;66.30;16.13;;;;;;;1.89;100.00;95861.28;5106275;28;20055;-67
2020/12/16 03:51:34;;;;;;;60.80;17.65;;;;;;;1.90;100.00;95865.44;5107699;28;20656;-68
2020/12/16 03:54:04;;;;;;;65.80;17.65;;;;;;;1.93;100.00;95872.06;5106311;28;20451;-67
2020/12/16 03:56:48;;;;;;;60.42;17.13;;;;;;;1.80;100.00;95861.34;5106540;28;20437;-67
2020/12/16 03:59:17;;;;;;;70.63;18.77;;;;;;;1.86;100.00;95865.91;5106514;28;20040;-66
2020/12/16 04:01:55;;;;;;;92.88;18.88;;;;;;;1.92;100.00;95865.28;5106075;28;20528;-66
2020/12/16 04:04:22;;;;;;;71.45;19.10;;;;;;;2.04;100.00;95869.22;5106434;28;20051;-66
2020/12/16 04:07:00;;;;;;;81.18;18.35;;;;;;;1.96;100.00;95876.06;5106437;28;20398;-68
2020/12/16 04:09:31;;;;;;;77.70;18.33;;;;;;;1.92;100.00;95870.44;5106120;28;20096;-66
2020/12/16 04:12:00;;;;;;;57.45;17.30;;;;;;;1.80;100.00;95861.34;5106062;28;20043;-67
2020/12/16 04:14:33;;;;;;;53.85;16.52;;;;;;;1.83;100.00;95872.13;5106208;28;20500;-67
2020/12/16 04:17:02;;;;;;;81.60;18.50;;;;;;;1.76;100.00;95862.63;5105148;28;20040;-68
2020/12/16 04:19:55;;;;;;;81.85;19.08;;;;;;;1.77;100.00;95877.88;5106790;28;20144;-66
2020/12/16 04:22:22;;;;;;;82.72;20.38;;;;;;;1.76;100.00;95876.25;5104814;28;20051;-66
2020/12/16 04:24:57;;;;;;;54.03;17.83;;;;;;;1.84;100.00;95873.75;5105961;28;20075;-66
2020/12/16 04:27:28;;;;;;;75.15;20.27;;;;;;;1.94;100.00;95873.66;5105734;28;20156;-66
2020/12/16 04:29:56;;;;;;;70.07;18.52;;;;;;;1.93;100.00;95877.19;5105616;28;20492;-65
2020/12/16 04:32:25;;;;;;;74.50;18.20;;;;;;;2.04;100.00;95894.91;5089512;28;20047;-66
2020/12/16 04:34:51;;;;;;;63.40;20.45;;;;;;;2.04;100.00;95897.50;5106780;28;20047;-68
2020/12/16 04:37:18;;;;;;;76.22;20.73;;;;;;;2.09;100.00;95903.00;5087202;28;20043;-67
2020/12/16 04:39:51;;;;;;;78.65;23.88;;;;;;;2.15;100.00;95905.91;5090057;28;20063;-66
2020/12/16 04:42:19;;;;;;;67.10;20.27;;;;;;;2.06;100.00;95898.13;5105845;28;20040;-67
2020/12/16 04:44:47;;;;;;;61.05;18.73;;;;;;;1.90;100.00;95877.50;5104644;28;20073;-67
2020/12/16 04:47:18;;;;;;;84.47;22.75;;;;;;;1.99;100.00;95902.28;5105574;28;20568;-67
2020/12/16 04:49:51;;;;;;;65.22;19.00;;;;;;;2.12;100.00;95916.50;5105401;28;20039;-67
2020/12/16 04:52:22;;;;;;;82.45;27.10;;;;;;;2.18;100.00;95915.88;5105826;28;20036;-68
2020/12/16 04:55:12;;;;;;;83.20;28.95;;;;;;;2.06;100.00;95907.63;5093089;28;20075;-67
2020/12/16 04:57:52;;;;;;;59.70;23.13;;;;;;;2.15;100.00;95911.06;5110451;28;20032;-67
2020/12/16 05:00:23;;;;;;;63.22;21.98;;;;;;;2.09;100.00;95913.28;5109459;28;20036;-67
2020/12/16 05:03:10;;;;;;;57.67;20.95;;;;;;;2.04;100.00;95914.69;5109659;28;20461;-67
2020/12/16 05:05:53;;;;;;;65.63;21.27;;;;;;;1.99;100.00;95901.47;5109239;28;20048;-65
2020/12/16 05:08:19;;;;;;;64.43;20.98;;;;;;;2.10;100.00;95909.72;5111003;28;20077;-65
2020/12/16 05:10:49;;;;;;;55.17;19.40;;;;;;;2.21;100.00;95920.72;5110756;28;20043;-66
2020/12/16 05:13:20;;;;;;;53.60;16.55;;;;;;;2.00;100.00;95901.34;5109618;28;20044;-66
2020/12/16 05:15:49;;;;;;;68.32;22.33;;;;;;;2.20;100.00;95924.25;5109617;28;20069;-65
2020/12/16 05:18:27;;;;;;;58.63;23.25;;;;;;;2.28;100.00;95916.59;5110404;28;20059;-66
2020/12/16 05:21:00;;;;;;;49.58;18.23;;;;;;;2.34;100.00;95931.41;5108483;28;20055;-66
2020/12/16 05:23:31;;;;;;;120.15;56.33;;;;;;;2.33;100.00;95924.66;5091650;28;20047;-65
2020/12/16 05:26:04;;;;;;;108.40;31.73;;;;;;;2.55;100.00;95927.66;5110138;28;20035;-74
2020/12/16 05:28:39;;;;;;;118.85;29.38;;;;;;;2.65;100.00;95938.63;5109562;28;20063;-72
2020/12/16 05:31:11;;;;;;;163.55;31.75;;;;;;;2.71;100.00;95932.88;5107640;28;20519;-73
2020/12/16 05:34:03;;;;;;;120.28;29.90;;;;;;;2.77;100.00;95942.53;5108945;28;20114;-73
2020/12/16 05:36:31;;;;;;;222.38;47.05;;;;;;;2.69;100.00;95945.06;5108581;28;20130;-72
2020/12/16 05:38:59;;;;;;;164.25;35.88;;;;;;;2.69;100.00;95942.50;5108637;28;20039;-72
2020/12/16 05:41:31;;;;;;;196.63;70.00;;;;;;;2.57;100.00;95946.31;5108568;28;20504;-72
2020/12/16 05:44:24;;;;;;;159.68;53.13;;;;;;;2.61;100.00;95950.16;5108787;28;20512;-72
2020/12/16 05:46:52;;;;;;;120.10;37.65;;;;;;;2.70;100.00;95949.25;5109000;28;20111;-72
2020/12/16 05:49:22;;;;;;;114.93;40.15;;;;;;;2.69;100.00;95955.38;5105925;28;20120;-74
2020/12/16 05:52:04;;;;;;;180.35;88.63;;;;;;;2.67;100.00;95947.00;5109839;28;20043;-74
2020/12/16 05:54:32;;;;;;;93.68;40.55;;;;;;;2.51;100.00;95947.72;5109837;28;20049;-75
2020/12/16 05:57:16;;;;;;;91.72;35.88;;;;;;;2.52;100.00;95958.81;5109116;28;20400;-75
2020/12/16 06:00:09;;;;;;;68.25;26.42;;;;;;;2.46;100.00;95961.03;5108597;28;20424;-76
2020/12/16 06:02:44;;;;;;;98.70;24.38;;;;;;;2.56;100.00;95962.72;5105186;28;20119;-74
2020/12/16 06:05:12;;;;;;;145.02;59.38;;;;;;;2.52;100.00;95971.66;5111243;28;20115;-73
2020/12/16 06:07:44;;;;;;;123.40;45.30;;;;;;;2.64;100.00;95970.44;5108498;28;20047;-73
2020/12/16 06:10:10;;;;;;;237.38;118.10;;;;;;;2.51;100.00;95965.72;5110636;27;20032;-74
2020/12/16 06:12:39;;;;;;;235.90;100.00;;;;;;;2.55;100.00;95973.94;5110961;28;20123;-74
2020/12/16 06:15:08;;;;;;;216.82;97.70;;;;;;;2.55;100.00;95979.09;5110008;28;20130;-74
2020/12/16 06:17:40;;;;;;;76.40;28.55;;;;;;;2.56;100.00;95986.66;5108947;28;20043;-74
2020/12/16 06:20:09;;;;;;;72.38;27.38;;;;;;;2.64;100.00;95975.59;5111059;28;20055;-75
2020/12/16 06:22:36;;;;;;;73.88;30.20;;;;;;;2.69;100.00;95975.94;5110008;28;20499;-73
2020/12/16 06:25:05;;;;;;;92.28;38.53;;;;;;;2.53;100.00;95975.88;5110473;28;20059;-74
2020/12/16 06:27:46;;;;;;;82.22;31.27;;;;;;;2.53;100.00;95981.00;5109691;28;20032;-74
2020/12/16 06:30:32;;;;;;;66.22;22.33;;;;;;;2.70;100.00;95980.13;5111249;28;20169;-76
2020/12/16 06:33:07;;;;;;;80.47;35.63;;;;;;;2.58;100.00;95968.50;5109102;28;20036;-74
2020/12/16 06:35:34;;;;;;;62.00;24.40;;;;;;;2.80;100.00;95991.09;5109005;28;20032;-75
2020/12/16 06:38:17;;;;;;;53.35;22.25;;;;;;;2.99;100.00;95986.69;5108120;28;20035;-74
2020/12/16 06:40:45;;;;;;;71.47;26.20;;;;;;;2.77;100.00;95991.41;5109224;28;20039;-74
2020/12/16 06:43:31;;;;;;;61.83;22.67;;;;;;;2.84;100.00;95994.97;5109595;28;20039;-76
2020/12/16 06:45:58;;;;;;;95.45;35.65;;;;;;;2.96;100.00;95997.31;5110622;28;20035;-75
2020/12/16 06:48:38;;;;;;;107.93;42.75;;;;;;;2.96;100.00;95997.31;5110907;28;20556;-75
2020/12/16 06:51:22;;;;;;;79.00;26.70;;;;;;;3.04;100.00;96003.28;5110635;28;20036;-75
2020/12/16 06:54:03;;;;;;;58.78;21.58;;;;;;;2.95;100.00;95982.81;5110514;28;20048;-76
2020/12/16 06:56:39;;;;;;;52.78;21.02;;;;;;;3.06;100.00;95997.97;5108325;28;20042;-76
2020/12/16 06:59:07;;;;;;;57.95;18.20;;;;;;;3.17;100.00;96000.28;5110531;28;20038;-74
2020/12/16 07:01:33;;;;;;;60.92;22.88;;;;;;;3.20;100.00;96005.09;5108894;28;20113;-75
2020/12/16 07:04:00;;;;;;;75.55;27.92;;;;;;;3.07;100.00;96009.88;5110052;28;20105;-75
2020/12/16 07:06:29;;;;;;;65.78;26.63;;;;;;;3.14;100.00;96005.72;5109513;27;20039;-74
2020/12/16 07:09:14;;;;;;;67.03;27.15;;;;;;;3.21;100.00;96006.72;5106915;28;20039;-74
2020/12/16 07:11:41;;;;;;;;;;;;;;;3.29;100.00;96008.50;5110228;28;20051;-74
2020/12/16 07:14:12;;;;;;;80.13;32.40;;;;;;;3.25;100.00;96002.88;5107912;28;19959;-75
2020/12/16 07:16:39;;;;;;;77.05;28.08;;;;;;;3.14;100.00;95995.44;5106593;28;20467;-73
2020/12/16 07:19:05;;;;;;;80.70;26.02;;;;;;;2.94;100.00;95988.94;5108251;28;20034;-76
2020/12/16 07:21:32;;;;;;;80.97;30.58;;;;;;;3.11;100.00;96000.88;5109704;28;20040;-76
2020/12/16 07:24:02;;;;;;;89.03;30.35;;;;;;;3.08;100.00;96006.38;5109180;28;20049;-75
2020/12/16 07:26:48;;;;;;;73.75;23.33;;;;;;;3.11;100.00;96000.88;5109684;28;20078;-76
2020/12/16 07:29:38;;;;;;;83.82;22.20;;;;;;;2.97;100.00;96010.03;5108657;28;20110;-75
2020/12/16 07:32:11;;;;;;;68.20;24.13;;;;;;;2.92;100.00;96008.84;5109585;28;20591;-75
2020/12/16 07:34:41;;;;;;;83.95;32.97;;;;;;;2.93;100.00;96008.69;5107832;28;20049;-74
2020/12/16 07:37:08;;;;;;;75.57;29.00;;;;;;;2.84;100.00;96005.28;5107884;28;20044;-75
2020/12/16 07:39:44;;;;;;;98.38;35.05;;;;;;;2.78;100.00;95995.59;5108493;28;20055;-75
2020/12/16 07:42:10;;;;;;;89.80;30.25;;;;;;;2.93;100.00;96003.53;5108749;28;20039;-76
2020/12/16 07:44:43;;;;;;;86.13;32.58;;;;;;;2.90;100.00;96008.19;5110268;28;20039;-74
2020/12/16 07:47:10;;;;;;;73.60;30.38;;;;;;;2.87;100.00;95999.03;5109420;28;20469;-75
2020/12/16 07:49:40;;;;;;;75.07;28.00;;;;;;;2.95;100.00;96005.97;5109328;28;20034;-76
2020/12/16 07:52:06;;;;;;;80.47;31.38;;;;;;;2.89;100.00;96006.59;5106933;28;20044;-75
2020/12/16 07:54:33;;;;;;;87.30;30.90;;;;;;;2.87;100.00;96004.97;5109548;28;20044;-75
2020/12/16 07:57:01;;;;;;;78.20;34.00;;;;;;;2.91;100.00;95999.53;5108085;28;20043;-76
2020/12/16 07:59:31;;;;;;;73.85;30.27;;;;;;;3.00;100.00;96004.53;5110019;28;20035;-77
2020/12/16 08:02:11;;;;;;;79.43;33.33;;;;;;;3.09;100.00;96007.97;5108530;28;20046;-76
2020/12/16 08:04:41;;;;;;;86.93;36.60;;;;;;;3.12;100.00;96015.38;5107681;28;20448;-75
2020/12/16 08:07:18;;;;;;;74.78;32.92;;;;;;;3.06;100.00;96008.25;5109918;28;20499;-75
2020/12/16 08:09:52;;;;;;;84.05;36.35;;;;;;;3.04;100.00;96012.75;5108066;28;20043;-74
2020/12/16 08:12:22;;;;;;;80.85;33.95;;;;;;;3.19;100.00;96016.38;5109119;28;20058;-75
2020/12/16 08:14:49;;;;;;;79.30;33.67;;;;;;;3.33;100.00;96011.56;5107821;28;20032;-74
2020/12/16 08:17:17;;;;;;;66.40;29.00;;;;;;;3.34;100.00;96015.78;5109384;28;20036;-75
2020/12/16 08:19:43;;;;;;;70.15;33.35;;;;;;;3.30;100.00;96019.63;5109566;28;20115;-75
2020/12/16 08:22:16;;;;;;;63.90;31.35;;;;;;;3.24;100.00;96003.84;5109068;28;20508;-74
2020/12/16 08:24:58;;;;;;;55.20;24.08;;;;;;;3.36;100.00;96013.84;5109619;28;20577;-76
2020/12/16 08:27:27;;;;;;;59.90;26.70;;;;;;;3.41;100.00;96014.19;5110139;28;21881;-75
2020/12/16 08:29:53;;;;;;;58.15;26.77;;;;;;;3.51;100.00;96017.44;5109562;28;20465;-76
2020/12/16 08:32:25;;;;;;;59.95;27.52;;;;;;;3.36;100.00;96011.28;5108742;28;20038;-75
2020/12/16 08:34:53;;;;;;;60.88;30.77;;;;;;;3.27;100.00;96005.28;5109764;28;20035;-75
2020/12/16 08:37:22;;;;;;;57.10;27.20;;;;;;;3.33;100.00;96020.13;5110066;28;20412;-75
2020/12/16 08:39:49;;;;;;;52.10;27.85;;;;;;;3.30;100.00;96004.19;5110098;28;20050;-76
2020/12/16 08:42:24;;;;;;;48.75;25.15;;;;;;;3.46;100.00;96019.69;5110281;28;20044;-75
2020/12/16 08:44:51;;;;;;;38.83;21.77;;;;;;;3.59;100.00;96014.88;5108748;28;20088;-75
2020/12/16 08:47:25;;;;;;;54.05;26.20;;;;;;;3.45;100.00;96012.91;5109297;28;20455;-75
2020/12/16 08:49:53;;;;;;;47.28;20.67;;;;;;;3.57;100.00;96021.97;5108666;28;20458;-75
2020/12/16 08:52:20;;;;;;;38.00;20.23;;;;;;;3.60;100.00;96015.66;5109525;28;20126;-78
2020/12/16 08:54:46;;;;;;;38.90;20.20;;;;;;;3.49;100.00;96001.31;5109847;28;20052;-74
2020/12/16 08:57:30;;;;;;;48.53;25.30;;;;;;;3.46;100.00;95991.34;5106880;28;20039;-74
2020/12/16 09:00:09;;;;;;;60.67;31.83;;;;;;;3.48;100.00;95997.16;5108915;28;20455;-75
2020/12/16 09:02:36;;;;;;;49.53;26.30;;;;;;;3.52;100.00;95988.13;5107870;28;20425;-75
2020/12/16 09:05:03;;;;;;;49.58;25.63;;;;;;;3.56;100.00;95989.41;5109342;28;20131;-76
2020/12/16 09:07:29;;;;;;;32.72;17.75;;;;;;;3.80;100.00;95990.44;5107534;28;20118;-75
2020/12/16 09:09:58;;;;;;;32.90;17.70;;;;;;;3.53;100.00;95987.19;5109491;28;20036;-74
2020/12/16 09:12:25;;;;;;;34.28;20.80;;;;;;;3.46;100.00;95988.78;5109405;28;20063;-75
2020/12/16 09:14:53;;;;;;;28.15;17.80;;;;;;;3.45;100.00;96002.59;5107919;28;20044;-75
2020/12/16 09:17:29;;;;;;;25.52;15.23;;;;;;;3.54;100.00;95991.34;5108099;28;20118;-75
2020/12/16 09:19:56;;;;;;;25.83;17.02;;;;;;;3.68;100.00;95996.88;5109233;28;20046;-75
2020/12/16 09:22:30;;;;;;;39.10;26.63;;;;;;;3.79;99.80;95988.81;5108054;28;20040;-74
2020/12/16 09:24:59;;;;;;;35.17;21.20;;;;;;;3.72;100.00;95987.84;5107951;28;20035;-75
2020/12/16 09:27:26;;;;;;;31.38;19.48;;;;;;;3.67;100.00;95979.78;5107913;28;20040;-75
2020/12/16 09:29:53;;;;;;;33.65;20.27;;;;;;;3.57;100.00;95975.59;5108799;28;20161;-74
2020/12/16 09:32:24;;;;;;;26.30;17.15;;;;;;;3.63;100.00;95969.78;5108340;28;20489;-76
2020/12/16 09:34:52;;;;;;;45.20;31.13;;;;;;;3.51;100.00;95981.38;5109425;28;20036;-76
2020/12/16 09:37:36;;;;;;;38.95;26.20;;;;;;;3.44;100.00;95970.09;5108355;28;20084;-75
2020/12/16 09:40:14;;;;;;;25.23;17.83;;;;;;;3.55;100.00;95982.66;5108064;28;20042;-75
2020/12/16 09:43:02;;;;;;;22.92;14.95;;;;;;;3.51;100.00;95981.38;5109727;28;20114;-74
2020/12/16 09:45:32;;;;;;;24.60;18.10;;;;;;;3.46;100.00;95978.47;5110563;28;20144;-75
2020/12/16 09:47:59;;;;;;;40.72;28.55;;;;;;;3.47;100.00;95979.28;5111401;28;20039;-75
2020/12/16 09:50:28;;;;;;;29.05;19.52;;;;;;;3.41;100.00;95965.25;5111807;28;20416;-75
2020/12/16 09:52:58;;;;;;;28.40;19.20;;;;;;;3.45;100.00;95971.69;5109851;28;20476;-75
2020/12/16 09:55:28;;;;;;;21.10;13.27;;;;;;;3.64;100.00;95955.94;5110803;28;20134;-75
2020/12/16 09:58:11;;;;;;;19.77;12.68;;;;;;;3.86;100.00;95964.00;5110586;28;20027;-75
2020/12/16 10:00:40;;;;;;;19.13;11.90;;;;;;;3.86;100.00;95968.38;5110393;28;20118;-75
2020/12/16 10:03:09;;;;;;;21.30;12.50;;;;;;;4.06;100.00;95958.53;5109637;28;20040;-74
2020/12/16 10:05:37;;;;;;;20.15;12.55;;;;;;;3.93;99.95;95954.69;5110936;28;20116;-75
2020/12/16 10:08:06;;;;;;;18.27;12.45;;;;;;;4.02;98.96;95958.84;5111865;28;20036;-75
2020/12/16 10:10:33;;;;;;;21.83;13.85;;;;;;;4.02;98.87;95958.06;5109518;28;20604;-75
2020/12/16 10:12:59;;;;;;;22.25;15.65;;;;;;;3.99;98.71;95938.53;5109456;28;20074;-75
2020/12/16 10:15:26;;;;;;;23.60;14.00;;;;;;;3.79;98.72;95950.16;5111501;28;20036;-75
2020/12/16 10:17:53;;;;;;;24.95;14.90;;;;;;;3.83;99.78;95941.97;5111375;28;20134;-75
2020/12/16 10:20:19;;;;;;;22.33;14.43;;;;;;;4.02;99.54;95940.81;5111491;28;20036;-75
2020/12/16 10:22:45;;;;;;;21.08;14.32;;;;;;;4.07;98.95;95944.66;5111621;28;20686;-76
2020/12/16 10:25:13;;;;;;;21.52;14.20;;;;;;;4.11;99.75;95943.41;5112041;28;20574;-76
2020/12/16 10:27:39;;;;;;;24.30;16.67;;;;;;;4.06;99.44;95940.50;5111541;28;20043;-76
2020/12/16 10:30:06;;;;;;;20.83;14.60;;;;;;;4.08;98.41;95935.97;5112005;28;20127;-75
2020/12/16 10:32:35;;;;;;;21.33;13.05;;;;;;;3.98;99.27;95936.13;5111887;28;22107;-76
2020/12/16 10:35:03;;;;;;;20.10;13.15;;;;;;;4.10;98.39;95934.03;5111054;28;20071;-76
2020/12/16 10:37:29;;;;;;;21.35;14.32;;;;;;;4.22;98.23;95932.72;5110190;28;20043;-75
2020/12/16 10:39:55;;;;;;;19.90;13.57;;;;;;;4.29;97.16;95918.22;5111753;27;20045;-76
2020/12/16 10:42:22;;;;;;;25.65;15.18;;;;;;;4.28;97.32;95926.91;5111811;28;20066;-75
2020/12/16 10:44:49;;;;;;;24.38;13.48;;;;;;;4.28;97.23;95926.91;5111476;28;20035;-75
2020/12/16 10:47:16;;;;;;;19.65;12.20;;;;;;;4.31;96.85;95936.91;5110567;28;20526;-76
2020/12/16 10:49:43;;;;;;;19.33;11.48;;;;;;;4.32;96.01;95930.78;5112050;28;20114;-77
2020/12/16 10:52:12;;;;;;;19.85;12.82;;;;;;;4.15;97.42;95921.47;5110431;28;20046;-76
2020/12/16 10:54:39;;;;;;;21.08;13.63;;;;;;;4.27;96.97;95925.31;5110935;28;20075;-77
2020/12/16 10:57:06;;;;;;;25.17;13.50;;;;;;;4.35;95.72;95922.69;5112239;28;20504;-75
2020/12/16 10:59:33;;;;;;;22.10;14.15;;;;;;;4.40;95.94;95925.59;5111791;27;20517;-76
2020/12/16 11:02:10;;;;;;;19.92;13.05;;;;;;;4.49;95.67;95923.00;5111760;28;20044;-76
2020/12/16 11:04:36;;;;;;;18.42;13.85;;;;;;;4.52;94.83;95923.47;5110304;28;20040;-76
2020/12/16 11:07:06;;;;;;;20.58;13.93;;;;;;;4.45;94.98;95917.38;5109629;28;20093;-76
2020/12/16 11:09:33;;;;;;;21.98;14.02;;;;;;;4.24;95.94;95892.09;5111855;28;20114;-76
2020/12/16 11:11:59;;;;;;;23.20;14.40;;;;;;;4.19;96.81;95912.41;5111552;28;20420;-76
2020/12/16 11:14:26;;;;;;;25.77;16.17;;;;;;;4.19;97.63;95917.56;5111512;28;20112;-76
2020/12/16 11:16:54;;;;;;;22.65;13.52;;;;;;;3.89;97.85;95917.31;5109639;28;20039;-75
2020/12/16 11:19:21;;;;;;;32.72;21.50;;;;;;;3.77;98.50;95913.44;5111261;28;20440;-75
2020/12/16 11:21:50;;;;;;;26.90;17.00;;;;;;;4.08;98.62;95913.56;5110155;28;20042;-76
2020/12/16 11:24:19;;;;;;;27.83;17.38;;;;;;;4.30;97.36;95904.34;5111153;28;20130;-75
2020/12/16 11:26:47;;;;;;;25.25;17.02;;;;;;;4.53;96.54;95909.59;5110652;28;20123;-75
2020/12/16 11:29:15;;;;;;;22.65;15.30;;;;;;;4.64;95.28;95900.69;5111161;28;20114;-76
2020/12/16 11:31:47;;;;;;;22.80;15.65;;;;;;;4.76;94.60;95895.97;5108718;28;20040;-75
2020/12/16 11:34:18;;;;;;;18.92;12.95;;;;;;;4.63;93.25;95914.56;5108100;28;20055;-76
2020/12/16 11:36:46;;;;;;;19.23;12.98;;;;;;;4.44;93.66;95899.47;5108655;28;20441;-76